createdAt,value
2022-08-24T00:02:06.665Z,86.00
2022-08-24T00:04:36.003Z,86.12
2022-08-24T00:07:05.413Z,86.18
2022-08-24T00:09:42.302Z,86.14
2022-08-24T00:12:19.810Z,86.00
2022-08-24T00:14:51.499Z,85.96
2022-08-24T00:17:22.765Z,85.89
2022-08-24T00:19:54.556Z,85.99
2022-08-24T00:22:23.558Z,85.93
2022-08-24T00:24:59.779Z,85.77
2022-08-24T00:27:28.151Z,85.86
2022-08-24T00:29:57.212Z,85.84
2022-08-24T00:32:25.538Z,85.74
2022-08-24T00:35:01.520Z,85.72
2022-08-24T00:37:30.322Z,85.36
2022-08-24T00:40:02.824Z,85.06
2022-08-24T00:42:37.267Z,84.92
2022-08-24T00:45:17.416Z,84.74
2022-08-24T00:47:48.904Z,84.59
2022-08-24T00:50:31.301Z,84.90
2022-08-24T00:53:18.808Z,84.78
2022-08-24T00:55:54.336Z,84.81
2022-08-24T00:58:34.016Z,84.76
2022-08-24T01:01:06.564Z,84.77
2022-08-24T01:03:42.011Z,84.90
2022-08-24T01:06:12.738Z,84.90
2022-08-24T01:08:42.060Z,84.83
2022-08-24T01:11:17.469Z,84.88
2022-08-24T01:13:49.923Z,85.06
2022-08-24T01:16:41.524Z,84.93
2022-08-24T01:19:19.939Z,85.03
2022-08-24T01:21:59.463Z,85.29
2022-08-24T01:24:29.195Z,85.36
2022-08-24T01:26:57.761Z,85.40
2022-08-24T01:29:31.439Z,85.42
2022-08-24T01:32:00.593Z,85.46
2022-08-24T01:34:31.820Z,85.55
2022-08-24T01:37:01.047Z,85.80
2022-08-24T01:39:35.495Z,85.95
2022-08-24T01:42:04.740Z,85.95
2022-08-24T01:44:37.487Z,85.88
2022-08-24T01:47:08.048Z,85.99
2022-08-24T01:49:39.630Z,86.09
2022-08-24T01:52:11.117Z,86.18
2022-08-24T01:54:43.538Z,86.35
2022-08-24T01:57:16.313Z,86.38
2022-08-24T01:59:46.978Z,86.59
2022-08-24T02:02:20.724Z,86.51
2022-08-24T02:04:52.177Z,86.73
2022-08-24T02:07:21.933Z,86.85
2022-08-24T02:09:53.101Z,87.06
2022-08-24T02:12:23.986Z,87.06
2022-08-24T02:14:52.622Z,87.15
2022-08-24T02:17:24.960Z,87.22
2022-08-24T02:19:59.372Z,87.38
2022-08-24T02:22:27.840Z,87.33
2022-08-24T02:24:57.715Z,87.40
2022-08-24T02:27:29.860Z,87.58
2022-08-24T02:29:58.177Z,87.56
2022-08-24T02:32:26.540Z,87.73
2022-08-24T02:34:55.071Z,87.57
2022-08-24T02:37:23.921Z,87.77
2022-08-24T02:39:53.588Z,87.88
2022-08-24T02:42:25.597Z,87.80
2022-08-24T02:44:55.917Z,87.97
2022-08-24T02:47:38.391Z,87.83
2022-08-24T02:50:12.042Z,87.99
2022-08-24T02:52:40.975Z,87.96
2022-08-24T02:55:20.049Z,87.95
2022-08-24T02:57:52.191Z,88.04
2022-08-24T03:00:23.664Z,87.99
2022-08-24T03:02:52.609Z,87.94
2022-08-24T03:05:29.208Z,87.96
2022-08-24T03:08:00.100Z,88.08
2022-08-24T03:10:38.160Z,88.16
2022-08-24T03:13:09.288Z,88.17
2022-08-24T03:15:37.772Z,88.41
2022-08-24T03:18:06.282Z,88.49
2022-08-24T03:20:37.513Z,88.55
2022-08-24T03:23:06.400Z,88.52
2022-08-24T03:25:35.068Z,88.36
2022-08-24T03:28:11.075Z,88.44
2022-08-24T03:30:46.788Z,88.47
2022-08-24T03:33:19.096Z,88.46
2022-08-24T03:35:47.594Z,88.48
2022-08-24T03:38:18.410Z,88.54
2022-08-24T03:40:47.692Z,88.47
2022-08-24T03:43:30.296Z,88.57
2022-08-24T03:46:03.118Z,88.60
2022-08-24T03:48:32.390Z,88.53
2022-08-24T03:51:00.915Z,88.77
2022-08-24T03:53:29.381Z,88.83
2022-08-24T03:55:58.165Z,88.84
2022-08-24T03:58:28.303Z,88.86
2022-08-24T04:00:58.557Z,88.94
2022-08-24T04:03:28.363Z,89.14
2022-08-24T04:06:02.004Z,89.22
2022-08-24T04:08:31.478Z,89.33
2022-08-24T04:11:04.010Z,89.47
2022-08-24T04:13:32.913Z,89.39
2022-08-24T04:16:07.091Z,89.43
2022-08-24T04:18:37.185Z,89.56
2022-08-24T04:21:08.140Z,89.49
2022-08-24T04:23:47.603Z,89.62
2022-08-24T04:26:32.463Z,89.48
2022-08-24T04:29:09.448Z,89.59
2022-08-24T04:31:43.846Z,89.59
2022-08-24T04:34:16.598Z,89.59
2022-08-24T04:36:46.364Z,89.61
2022-08-24T04:39:18.645Z,89.45
2022-08-24T04:42:22.382Z,89.74
2022-08-24T04:44:52.595Z,89.66
2022-08-24T04:47:24.322Z,89.66
2022-08-24T04:49:57.243Z,89.74
2022-08-24T04:52:29.460Z,89.97
2022-08-24T04:54:58.465Z,90.19
2022-08-24T04:57:31.883Z,90.04
2022-08-24T05:00:03.645Z,90.10
2022-08-24T05:02:36.204Z,90.09
2022-08-24T05:05:09.974Z,89.95
2022-08-24T05:07:41.321Z,89.83
2022-08-24T05:10:15.522Z,89.55
2022-08-24T05:12:46.974Z,89.74
2022-08-24T05:15:19.832Z,89.39
2022-08-24T05:17:51.188Z,89.41
2022-08-24T05:20:23.100Z,89.55
2022-08-24T05:22:58.136Z,89.53
2022-08-24T05:25:31.687Z,89.60
2022-08-24T05:28:00.921Z,89.49
2022-08-24T05:30:32.388Z,89.40
2022-08-24T05:33:05.901Z,89.21
2022-08-24T05:35:43.687Z,89.01
2022-08-24T05:38:12.638Z,89.02
2022-08-24T05:40:41.341Z,88.91
2022-08-24T05:43:10.056Z,88.72
2022-08-24T05:45:43.419Z,88.58
2022-08-24T05:48:12.900Z,88.50
2022-08-24T05:50:55.314Z,88.31
2022-08-24T05:53:27.466Z,88.19
2022-08-24T05:56:03.329Z,87.93
2022-08-24T05:58:31.704Z,87.76
2022-08-24T06:01:07.477Z,87.53
2022-08-24T06:03:37.072Z,87.24
2022-08-24T06:06:11.654Z,86.89
2022-08-24T06:08:42.463Z,86.59
2022-08-24T06:11:12.861Z,86.67
2022-08-24T06:13:43.600Z,86.19
2022-08-24T06:16:21.766Z,85.79
2022-08-24T06:18:55.302Z,85.76
2022-08-24T06:21:28.690Z,85.45
2022-08-24T06:24:01.383Z,84.84
2022-08-24T06:26:50.000Z,84.45
2022-08-24T06:29:22.378Z,84.74
2022-08-24T06:31:56.232Z,84.85
2022-08-24T06:34:27.071Z,84.88
2022-08-24T06:36:56.994Z,84.93
2022-08-24T06:39:28.020Z,84.25
2022-08-24T06:41:58.339Z,84.48
2022-08-24T06:44:34.845Z,84.48
2022-08-24T06:47:16.100Z,84.39
2022-08-24T06:49:44.844Z,84.65
2022-08-24T06:52:16.879Z,84.34
2022-08-24T06:54:47.126Z,84.00
2022-08-24T06:57:15.612Z,83.97
2022-08-24T06:59:44.913Z,84.31
2022-08-24T07:02:18.941Z,84.06
2022-08-24T07:04:51.051Z,83.59
2022-08-24T07:07:43.112Z,83.36
2022-08-24T07:10:12.533Z,82.68
2022-08-24T07:12:40.884Z,81.47
2022-08-24T07:15:17.191Z,81.26
2022-08-24T07:17:53.511Z,80.14
2022-08-24T07:20:22.517Z,79.88
2022-08-24T07:23:15.031Z,80.13
2022-08-24T07:25:49.634Z,79.21
2022-08-24T07:28:31.490Z,79.11
2022-08-24T07:31:02.051Z,78.98
2022-08-24T07:33:37.605Z,78.24
2022-08-24T07:36:07.407Z,77.79
2022-08-24T07:38:42.155Z,77.21
2022-08-24T07:41:38.202Z,77.31
2022-08-24T07:44:06.567Z,76.44
2022-08-24T07:46:42.956Z,75.54
2022-08-24T07:49:33.112Z,74.99
2022-08-24T07:52:05.309Z,75.09
2022-08-24T07:54:36.339Z,76.37
2022-08-24T07:57:09.155Z,75.91
2022-08-24T07:59:38.988Z,76.20
2022-08-24T08:02:11.865Z,76.53
2022-08-24T08:04:48.693Z,75.50
2022-08-24T08:07:19.815Z,74.77
2022-08-24T08:09:53.770Z,74.20
2022-08-24T08:12:22.255Z,73.93
2022-08-24T08:14:57.481Z,75.13
2022-08-24T08:17:26.458Z,74.79
2022-08-24T08:19:56.012Z,75.34
2022-08-24T08:22:42.926Z,73.45
2022-08-24T08:25:54.576Z,72.61
2022-08-24T08:28:37.732Z,73.65
2022-08-24T08:31:07.445Z,74.38
2022-08-24T08:33:37.251Z,74.29
2022-08-24T08:36:09.155Z,74.34
2022-08-24T08:38:43.114Z,75.21
2022-08-24T08:41:40.900Z,74.49
2022-08-24T08:44:19.303Z,74.61
2022-08-24T08:46:56.729Z,74.21
2022-08-24T08:50:03.136Z,74.96
2022-08-24T08:53:10.037Z,73.22
2022-08-24T08:55:47.063Z,72.69
2022-08-24T08:58:42.625Z,72.47
2022-08-24T09:01:32.832Z,69.84
2022-08-24T09:04:28.489Z,70.55
2022-08-24T09:07:22.438Z,70.39
2022-08-24T09:10:18.834Z,71.59
2022-08-24T09:13:10.164Z,71.38
2022-08-24T09:15:59.905Z,71.16
2022-08-24T09:18:49.459Z,70.87
2022-08-24T09:21:35.462Z,70.64
2022-08-24T09:24:20.325Z,70.68
2022-08-24T09:26:59.801Z,70.77
2022-08-24T09:29:48.557Z,69.85
2022-08-24T09:32:36.318Z,69.33
2022-08-24T09:35:09.776Z,69.81
2022-08-24T09:37:57.339Z,69.91
2022-08-24T09:40:38.209Z,70.43
2022-08-24T09:43:38.045Z,71.10
2022-08-24T09:46:34.844Z,70.16
2022-08-24T09:49:39.528Z,69.93
2022-08-24T09:52:38.987Z,71.10
2022-08-24T09:55:46.267Z,69.29
2022-08-24T09:58:26.638Z,68.61
2022-08-24T10:01:04.949Z,68.79
2022-08-24T10:03:52.388Z,68.29
2022-08-24T10:06:33.738Z,68.20
2022-08-24T10:09:14.890Z,67.50
2022-08-24T10:11:59.245Z,67.79
2022-08-24T10:14:42.540Z,65.87
2022-08-24T10:17:19.227Z,66.46
2022-08-24T10:20:06.662Z,66.22
2022-08-24T10:23:00.313Z,65.81
2022-08-24T10:25:34.763Z,67.16
2022-08-24T10:28:25.672Z,64.63
2022-08-24T10:31:12.542Z,63.90
2022-08-24T10:33:57.230Z,65.04
2022-08-24T10:36:56.754Z,64.34
2022-08-24T10:39:53.091Z,63.71
2022-08-24T10:43:00.375Z,65.13
2022-08-24T10:45:53.144Z,66.15
2022-08-24T10:49:04.601Z,64.09
2022-08-24T10:51:43.961Z,66.33
2022-08-24T10:54:13.774Z,64.69
2022-08-24T10:56:56.976Z,63.72
2022-08-24T10:59:29.789Z,64.14
2022-08-24T11:02:06.677Z,63.27
2022-08-24T11:04:41.730Z,62.07
2022-08-24T11:07:18.685Z,62.34
2022-08-24T11:09:56.278Z,61.67
2022-08-24T11:12:30.132Z,60.39
2022-08-24T11:15:01.890Z,80.20
2022-08-24T11:17:35.059Z,82.52
2022-08-24T11:20:05.818Z,86.45
2022-08-24T11:22:40.895Z,92.75
2022-08-24T11:25:15.596Z,95.88
2022-08-24T11:27:49.406Z,98.74
2022-08-24T11:30:26.465Z,94.52
2022-08-24T11:32:57.558Z,96.73
2022-08-24T11:35:31.978Z,94.40
2022-08-24T11:38:10.207Z,94.02
2022-08-24T11:40:57.102Z,94.89
2022-08-24T11:43:54.536Z,98.47
2022-08-24T11:46:33.557Z,93.38
2022-08-24T11:49:11.446Z,97.45
2022-08-24T11:51:50.958Z,95.85
2022-08-24T11:54:28.061Z,93.84
2022-08-24T11:57:11.922Z,90.37
2022-08-24T11:59:49.005Z,89.11
2022-08-24T12:02:28.205Z,89.43
2022-08-24T12:05:03.486Z,91.62
2022-08-24T12:07:50.897Z,89.18
2022-08-24T12:10:32.876Z,91.69
2022-08-24T12:13:07.704Z,91.73
2022-08-24T12:15:51.798Z,88.85
2022-08-24T12:18:31.104Z,87.12
2022-08-24T12:21:01.509Z,85.30
2022-08-24T12:23:38.449Z,90.28
2022-08-24T12:26:11.332Z,92.63
2022-08-24T12:28:42.299Z,83.80
2022-08-24T12:31:21.846Z,84.48
2022-08-24T12:33:57.813Z,82.87
2022-08-24T12:36:33.368Z,88.96
2022-08-24T12:39:09.046Z,84.39
2022-08-24T12:41:45.115Z,84.16
2022-08-24T12:44:18.386Z,87.08
2022-08-24T12:46:54.426Z,84.83
2022-08-24T12:49:29.198Z,88.91
2022-08-24T12:52:21.909Z,89.05
2022-08-24T12:55:19.185Z,81.58
2022-08-24T12:57:59.934Z,81.37
2022-08-24T13:00:37.362Z,79.16
2022-08-24T13:03:11.074Z,82.52
2022-08-24T13:05:44.839Z,77.40
2022-08-24T13:08:21.526Z,78.41
2022-08-24T13:10:56.081Z,79.89
2022-08-24T13:13:43.583Z,78.59
2022-08-24T13:16:13.139Z,79.14
2022-08-24T13:19:20.310Z,78.79
2022-08-24T13:21:57.277Z,75.33
2022-08-24T13:24:47.813Z,74.89
2022-08-24T13:27:58.199Z,81.94
2022-08-24T13:30:35.647Z,72.74
2022-08-24T13:33:09.205Z,76.29
2022-08-24T13:35:59.993Z,76.08
2022-08-24T13:38:59.333Z,70.62
2022-08-24T13:41:42.801Z,75.01
2022-08-24T13:44:23.795Z,78.66
2022-08-24T13:47:04.557Z,72.23
2022-08-24T13:50:03.999Z,70.91
2022-08-24T13:52:48.346Z,71.93
2022-08-24T13:55:36.996Z,76.47
2022-08-24T13:58:27.014Z,78.40
2022-08-24T14:01:01.970Z,75.40
2022-08-24T14:04:00.110Z,73.00
2022-08-24T14:06:43.505Z,75.44
2022-08-24T14:09:39.225Z,75.72
2022-08-24T14:12:25.113Z,75.97
2022-08-24T14:15:13.059Z,72.08
2022-08-24T14:17:56.447Z,68.41
2022-08-24T14:20:59.857Z,67.41
2022-08-24T14:23:35.777Z,72.00
2022-08-24T14:26:41.414Z,68.77
2022-08-24T14:29:46.774Z,68.23
2022-08-24T14:32:36.038Z,69.58
2022-08-24T14:35:24.616Z,71.64
2022-08-24T14:38:10.644Z,75.86
2022-08-24T14:40:57.801Z,78.86
2022-08-24T14:43:33.676Z,79.40
2022-08-24T14:46:13.415Z,83.74
2022-08-24T14:48:55.198Z,78.00
2022-08-24T14:51:54.623Z,80.01
2022-08-24T14:54:33.079Z,77.02
2022-08-24T14:57:21.052Z,82.38
2022-08-24T15:00:04.725Z,82.50
2022-08-24T15:03:16.713Z,83.03
2022-08-24T15:06:26.114Z,84.00
2022-08-24T15:09:16.140Z,87.48
2022-08-24T15:11:45.643Z,82.72
2022-08-24T15:14:37.729Z,78.46
2022-08-24T15:17:16.985Z,78.25
2022-08-24T15:19:55.024Z,69.19
2022-08-24T15:22:30.906Z,73.16
2022-08-24T15:25:14.681Z,78.85
2022-08-24T15:27:55.017Z,79.02
2022-08-24T15:30:27.342Z,72.38
2022-08-24T15:33:10.607Z,76.74
2022-08-24T15:35:45.795Z,76.71
2022-08-24T15:38:25.957Z,75.58
2022-08-24T15:41:05.243Z,75.25
2022-08-24T15:43:33.932Z,77.72
2022-08-24T15:46:10.687Z,76.29
2022-08-24T15:48:44.018Z,76.08
2022-08-24T15:51:37.188Z,75.49
2022-08-24T15:54:34.587Z,69.81
2022-08-24T15:57:05.563Z,67.46
2022-08-24T15:59:48.505Z,63.50
2022-08-24T16:02:29.117Z,66.74
2022-08-24T16:05:10.815Z,70.91
2022-08-24T16:08:11.698Z,73.09
2022-08-24T16:10:46.577Z,73.07
2022-08-24T16:13:25.202Z,72.18
2022-08-24T16:16:03.917Z,75.46
2022-08-24T16:18:58.420Z,73.24
2022-08-24T16:21:33.916Z,67.39
2022-08-24T16:24:13.052Z,71.60
2022-08-24T16:26:58.104Z,63.96
2022-08-24T16:29:55.774Z,64.65
2022-08-24T16:32:41.589Z,65.69
2022-08-24T16:35:21.504Z,66.90
2022-08-24T16:37:54.874Z,66.78
2022-08-24T16:40:25.201Z,63.64
2022-08-24T16:42:55.321Z,63.74
2022-08-24T16:45:26.817Z,65.59
2022-08-24T16:47:56.197Z,66.11
2022-08-24T16:50:28.252Z,70.96
2022-08-24T16:52:58.190Z,73.48
2022-08-24T16:55:28.716Z,78.11
2022-08-24T16:57:57.249Z,83.03
2022-08-24T17:00:25.605Z,84.10
2022-08-24T17:02:57.880Z,85.52
2022-08-24T17:05:29.386Z,86.32
2022-08-24T17:08:02.022Z,85.66
2022-08-24T17:10:38.028Z,84.71
2022-08-24T17:13:07.449Z,86.35
2022-08-24T17:15:39.468Z,86.68
2022-08-24T17:18:11.029Z,88.27
2022-08-24T17:20:39.854Z,86.74
2022-08-24T17:23:10.465Z,86.46
2022-08-24T17:25:42.000Z,88.09
2022-08-24T17:28:16.234Z,89.76
2022-08-24T17:30:47.608Z,91.06
2022-08-24T17:33:19.482Z,90.72
2022-08-24T17:35:48.139Z,91.76
2022-08-24T17:38:16.955Z,91.56
2022-08-24T17:40:47.924Z,92.13
2022-08-24T17:43:16.502Z,92.11
2022-08-24T17:45:52.425Z,93.30
2022-08-24T17:48:25.546Z,93.08
2022-08-24T17:50:56.224Z,93.67
2022-08-24T17:53:30.623Z,94.27
2022-08-24T17:56:00.444Z,94.36
2022-08-24T17:58:29.567Z,94.68
2022-08-24T18:01:01.282Z,95.57
2022-08-24T18:03:29.782Z,95.32
2022-08-24T18:06:01.737Z,95.55
2022-08-24T18:08:30.190Z,95.87
2022-08-24T18:10:58.924Z,96.39
2022-08-24T18:13:28.643Z,96.59
2022-08-24T18:15:59.691Z,97.50
2022-08-24T18:18:38.417Z,96.58
2022-08-24T18:21:06.822Z,97.52
2022-08-24T18:23:35.767Z,97.59
2022-08-24T18:26:19.633Z,97.59
2022-08-24T18:28:55.308Z,97.68
2022-08-24T18:31:28.569Z,97.24
2022-08-24T18:34:01.925Z,97.89
2022-08-24T18:36:36.600Z,97.95
2022-08-24T18:39:07.313Z,97.78
2022-08-24T18:41:49.163Z,97.39
2022-08-24T18:44:26.243Z,97.67
2022-08-24T18:47:01.347Z,97.71
2022-08-24T18:49:30.146Z,97.97
2022-08-24T18:51:58.973Z,97.77
2022-08-24T18:54:35.588Z,97.58
2022-08-24T18:57:08.708Z,97.15
2022-08-24T18:59:40.834Z,97.52
2022-08-24T19:02:33.586Z,98.08
2022-08-24T19:05:08.409Z,98.13
2022-08-24T19:07:40.582Z,98.02
2022-08-24T19:10:12.030Z,97.95
2022-08-24T19:12:46.848Z,97.36
2022-08-24T19:15:30.906Z,97.67
2022-08-24T19:18:10.944Z,98.48
2022-08-24T19:20:44.744Z,98.01
2022-08-24T19:23:20.632Z,98.19
2022-08-24T19:25:49.559Z,98.21
2022-08-24T19:28:18.831Z,98.35
2022-08-24T19:30:49.720Z,98.10
2022-08-24T19:33:26.741Z,98.13
2022-08-24T19:35:55.740Z,96.46
2022-08-24T19:38:26.418Z,97.78
2022-08-24T19:41:00.854Z,97.22
2022-08-24T19:43:32.706Z,96.58
2022-08-24T19:46:08.540Z,97.45
2022-08-24T19:48:44.607Z,97.21
2022-08-24T19:51:15.170Z,96.30
2022-08-24T19:53:45.688Z,97.36
2022-08-24T19:56:17.160Z,96.39
2022-08-24T19:58:48.028Z,95.32
2022-08-24T20:01:21.090Z,95.30
2022-08-24T20:03:50.496Z,93.51
2022-08-24T20:06:25.960Z,94.80
2022-08-24T20:08:54.685Z,94.73
2022-08-24T20:11:27.758Z,94.29
2022-08-24T20:13:56.189Z,92.89
2022-08-24T20:16:29.630Z,94.06
2022-08-24T20:19:01.901Z,94.66
2022-08-24T20:21:31.645Z,96.07
2022-08-24T20:24:01.260Z,96.29
2022-08-24T20:26:36.042Z,96.48
2022-08-24T20:29:09.582Z,95.51
2022-08-24T20:31:43.721Z,96.29
2022-08-24T20:34:16.644Z,96.51
2022-08-24T20:36:50.923Z,95.90
2022-08-24T20:39:25.705Z,95.06
2022-08-24T20:41:54.437Z,94.30
2022-08-24T20:44:23.264Z,95.56
2022-08-24T20:46:58.337Z,95.10
2022-08-24T20:49:27.928Z,94.94
2022-08-24T20:51:56.737Z,93.40
2022-08-24T20:54:25.130Z,91.99
2022-08-24T20:56:53.651Z,92.72
2022-08-24T20:59:21.995Z,92.54
2022-08-24T21:01:51.535Z,92.40
2022-08-24T21:04:21.164Z,91.55
2022-08-24T21:06:50.802Z,90.92
2022-08-24T21:09:19.746Z,89.68
2022-08-24T21:11:48.322Z,91.17
2022-08-24T21:14:22.111Z,90.03
2022-08-24T21:16:50.609Z,88.84
2022-08-24T21:19:20.298Z,87.05
2022-08-24T21:21:48.678Z,87.56
2022-08-24T21:24:19.952Z,88.70
2022-08-24T21:26:49.189Z,86.22
2022-08-24T21:29:17.756Z,87.88
2022-08-24T21:32:06.250Z,88.02
2022-08-24T21:34:42.860Z,87.69
2022-08-24T21:37:13.470Z,86.11
2022-08-24T21:39:42.670Z,85.22
2022-08-24T21:42:11.284Z,86.00
2022-08-24T21:44:40.526Z,86.58
2022-08-24T21:47:10.692Z,86.54
2022-08-24T21:49:41.258Z,85.96
2022-08-24T21:52:11.230Z,86.29
2022-08-24T21:54:39.564Z,84.35
2022-08-24T21:57:11.800Z,84.92
2022-08-24T21:59:43.206Z,83.65
2022-08-24T22:02:13.488Z,84.81
2022-08-24T22:04:47.209Z,83.30
2022-08-24T22:07:29.113Z,83.00
2022-08-24T22:10:01.268Z,83.58
2022-08-24T22:12:31.102Z,82.91
2022-08-24T22:15:02.383Z,83.18
2022-08-24T22:17:31.172Z,83.78
2022-08-24T22:19:59.820Z,83.84
2022-08-24T22:22:29.634Z,83.82
2022-08-24T22:25:03.844Z,82.98
2022-08-24T22:27:37.534Z,82.59
2022-08-24T22:30:06.732Z,81.41
2022-08-24T22:32:37.863Z,81.94
2022-08-24T22:35:10.117Z,82.30
2022-08-24T22:37:40.402Z,81.59
2022-08-24T22:40:13.041Z,81.61
2022-08-24T22:42:42.074Z,81.53
2022-08-24T22:45:16.759Z,81.50
2022-08-24T22:47:49.740Z,81.20
2022-08-24T22:50:18.250Z,81.31
2022-08-24T22:52:48.702Z,81.39
2022-08-24T22:55:17.060Z,81.31
2022-08-24T22:57:51.320Z,81.68
2022-08-24T23:00:20.468Z,81.68
2022-08-24T23:02:48.813Z,81.85
2022-08-24T23:05:17.389Z,81.88
2022-08-24T23:07:50.552Z,81.63
2022-08-24T23:10:19.072Z,81.98
2022-08-24T23:12:50.344Z,82.15
2022-08-24T23:15:18.862Z,82.07
2022-08-24T23:17:47.166Z,82.15
2022-08-24T23:20:15.078Z,82.33
2022-08-24T23:22:43.706Z,82.55
2022-08-24T23:25:14.624Z,82.53
2022-08-24T23:27:46.620Z,82.60
2022-08-24T23:30:22.083Z,82.65
2022-08-24T23:32:50.718Z,82.57
2022-08-24T23:35:19.084Z,82.69
2022-08-24T23:37:50.375Z,82.50
2022-08-24T23:40:24.583Z,82.49
2022-08-24T23:42:52.960Z,82.53
2022-08-24T23:45:28.128Z,82.26
2022-08-24T23:47:58.520Z,82.36
2022-08-24T23:50:27.078Z,82.73
2022-08-24T23:52:55.383Z,82.77
2022-08-24T23:55:25.182Z,82.54
2022-08-24T23:57:54.429Z,82.33
